createdAt,value
2019-03-31T00:00:08.381Z,36.20
2019-03-31T00:02:39.497Z,36.55
2019-03-31T00:05:09.942Z,39.90
2019-03-31T00:07:39.306Z,42.75
2019-03-31T00:10:08.919Z,43.30
2019-03-31T00:12:38.291Z,45.52
2019-03-31T00:15:09.097Z,43.38
2019-03-31T00:17:38.440Z,44.15
2019-03-31T00:20:08.116Z,44.33
2019-03-31T00:22:37.450Z,46.00
2019-03-31T00:25:06.980Z,45.23
2019-03-31T00:27:36.335Z,45.73
2019-03-31T00:30:06.948Z,45.50
2019-03-31T00:32:36.332Z,49.20
2019-03-31T00:35:05.740Z,46.28
2019-03-31T00:37:35.118Z,48.80
2019-03-31T00:40:06.320Z,47.53
2019-03-31T00:42:35.742Z,48.25
2019-03-31T00:45:07.347Z,48.80
2019-03-31T00:47:37.284Z,46.83
2019-03-31T00:50:07.773Z,48.68
2019-03-31T00:52:37.155Z,46.48
2019-03-31T00:55:06.732Z,47.70
2019-03-31T00:57:36.341Z,46.98
2019-03-31T01:00:09.521Z,47.23
2019-03-31T01:02:40.582Z,48.80
2019-03-31T01:05:10.261Z,48.92
2019-03-31T01:07:40.005Z,46.77
2019-03-31T01:10:10.026Z,47.88
2019-03-31T01:12:40.626Z,49.05
2019-03-31T01:15:13.279Z,47.48
2019-03-31T01:17:44.363Z,48.37
2019-03-31T01:20:13.758Z,47.83
2019-03-31T01:22:44.077Z,48.63
2019-03-31T01:25:15.352Z,47.93
2019-03-31T01:27:44.689Z,49.58
2019-03-31T01:30:16.135Z,47.25
2019-03-31T01:32:45.593Z,49.10
2019-03-31T01:35:15.187Z,48.58
2019-03-31T01:37:44.534Z,50.45
2019-03-31T01:40:14.059Z,47.88
2019-03-31T01:42:43.393Z,48.60
2019-03-31T01:45:12.957Z,47.78
2019-03-31T01:47:42.363Z,49.27
2019-03-31T01:50:14.539Z,50.70
2019-03-31T01:52:43.939Z,47.13
2019-03-31T01:55:13.512Z,50.17
2019-03-31T01:57:42.857Z,48.50
2019-03-31T02:00:14.575Z,49.42
2019-03-31T02:02:43.922Z,50.05
2019-03-31T02:05:13.291Z,46.98
2019-03-31T02:07:42.638Z,50.60
2019-03-31T02:10:12.050Z,50.73
2019-03-31T02:12:41.415Z,50.78
2019-03-31T02:15:11.686Z,53.05
2019-03-31T02:17:41.033Z,51.02
2019-03-31T02:20:10.834Z,50.73
2019-03-31T02:22:40.177Z,49.10
2019-03-31T02:25:09.583Z,49.65
2019-03-31T02:27:38.918Z,49.38
2019-03-31T02:30:08.599Z,52.13
2019-03-31T02:32:38.013Z,53.68
2019-03-31T02:35:08.103Z,52.75
2019-03-31T02:37:37.453Z,49.03
2019-03-31T02:40:07.219Z,50.78
2019-03-31T02:42:36.891Z,50.78
2019-03-31T02:45:09.749Z,52.23
2019-03-31T02:47:40.066Z,51.25
2019-03-31T02:50:09.853Z,49.98
2019-03-31T02:52:39.193Z,50.40
2019-03-31T02:55:08.541Z,50.65
2019-03-31T02:57:37.954Z,53.23
2019-03-31T03:00:07.919Z,50.80
2019-03-31T03:02:42.672Z,50.85
2019-03-31T03:05:19.493Z,52.08
2019-03-31T03:07:44.807Z,51.95
2019-03-31T03:10:14.286Z,52.85
2019-03-31T03:12:47.285Z,52.90
2019-03-31T03:15:27.313Z,51.42
2019-03-31T03:17:56.648Z,55.45
2019-03-31T03:20:25.993Z,54.85
2019-03-31T03:22:55.331Z,54.13
2019-03-31T03:25:24.669Z,52.83
2019-03-31T03:27:54.317Z,55.52
2019-03-31T03:30:23.784Z,55.50
2019-03-31T03:33:13.743Z,52.60
2019-03-31T03:35:24.347Z,55.43
2019-03-31T03:37:53.906Z,55.52
2019-03-31T03:40:23.537Z,54.27
2019-03-31T03:42:52.915Z,55.58
2019-03-31T03:45:22.394Z,55.20
2019-03-31T03:47:51.767Z,56.33
2019-03-31T03:50:21.140Z,55.35
2019-03-31T03:52:50.476Z,55.52
2019-03-31T03:55:19.810Z,54.40
2019-03-31T03:57:49.145Z,55.10
2019-03-31T04:00:18.494Z,54.60
2019-03-31T04:02:47.931Z,57.05
2019-03-31T04:05:17.277Z,56.50
2019-03-31T04:07:46.614Z,55.23
2019-03-31T04:10:36.424Z,56.80
2019-03-31T04:13:05.825Z,56.23
2019-03-31T04:15:35.429Z,55.52
2019-03-31T04:18:04.763Z,56.05
2019-03-31T04:20:34.113Z,55.43
2019-03-31T04:23:03.453Z,56.70
2019-03-31T04:25:33.056Z,57.30
2019-03-31T04:28:02.414Z,56.15
2019-03-31T04:30:31.757Z,56.70
2019-03-31T04:33:01.100Z,56.18
2019-03-31T04:35:30.450Z,56.20
2019-03-31T04:37:59.819Z,54.93
2019-03-31T04:40:29.253Z,55.03
2019-03-31T04:42:58.556Z,55.83
2019-03-31T04:45:27.908Z,53.70
2019-03-31T04:47:57.244Z,55.75
2019-03-31T04:50:26.601Z,57.27
2019-03-31T04:52:55.946Z,54.98
2019-03-31T04:55:25.274Z,54.30
2019-03-31T04:57:54.602Z,53.10
2019-03-31T05:00:23.947Z,53.40
2019-03-31T05:02:53.574Z,54.10
2019-03-31T05:05:22.901Z,53.52
2019-03-31T05:07:52.479Z,52.75
2019-03-31T05:10:22.089Z,51.02
2019-03-31T05:12:51.426Z,48.75
2019-03-31T05:15:20.821Z,47.13
2019-03-31T05:17:50.162Z,45.23
2019-03-31T05:20:19.495Z,44.45
2019-03-31T05:22:48.833Z,44.60
2019-03-31T05:25:18.417Z,45.60
2019-03-31T05:27:47.750Z,43.98
2019-03-31T05:30:17.257Z,41.98
2019-03-31T05:32:46.593Z,43.38
2019-03-31T05:35:15.931Z,41.95
2019-03-31T05:37:51.131Z,42.03
2019-03-31T05:40:16.302Z,39.73
2019-03-31T05:42:45.682Z,40.40
2019-03-31T05:45:15.071Z,41.55
2019-03-31T05:47:44.394Z,40.92
2019-03-31T05:50:13.743Z,40.20
2019-03-31T05:52:43.073Z,40.30
2019-03-31T05:55:12.449Z,40.23
2019-03-31T05:57:41.787Z,38.90
2019-03-31T06:00:11.269Z,40.85
2019-03-31T06:02:40.894Z,42.13
2019-03-31T06:05:10.307Z,39.25
2019-03-31T06:07:39.638Z,42.78
2019-03-31T06:10:09.159Z,41.48
2019-03-31T06:12:38.516Z,41.85
2019-03-31T06:15:08.098Z,39.00
2019-03-31T06:17:37.436Z,40.03
2019-03-31T06:20:07.111Z,40.63
2019-03-31T06:22:36.450Z,41.40
2019-03-31T06:25:06.615Z,39.48
2019-03-31T06:27:35.986Z,39.42
2019-03-31T06:30:06.749Z,37.65
2019-03-31T06:32:36.086Z,36.68
2019-03-31T06:35:06.352Z,38.50
2019-03-31T06:37:35.693Z,36.98
2019-03-31T06:40:06.065Z,37.58
2019-03-31T06:42:35.657Z,34.90
2019-03-31T06:45:06.626Z,35.38
2019-03-31T06:47:35.959Z,37.28
2019-03-31T06:50:07.399Z,36.63
2019-03-31T06:52:36.829Z,35.60
2019-03-31T06:55:07.579Z,34.50
2019-03-31T06:57:36.910Z,33.75
2019-03-31T07:00:09.422Z,33.60
2019-03-31T07:02:38.809Z,31.65
2019-03-31T07:05:08.873Z,32.25
2019-03-31T07:07:38.204Z,33.02
2019-03-31T07:10:08.075Z,31.95
2019-03-31T07:12:37.581Z,31.68
2019-03-31T07:15:08.345Z,35.35
2019-03-31T07:17:37.681Z,34.30
2019-03-31T07:20:09.213Z,34.00
2019-03-31T07:22:38.614Z,34.30
2019-03-31T07:25:09.857Z,33.88
2019-03-31T07:27:39.832Z,36.03
2019-03-31T07:30:15.138Z,36.63
2019-03-31T07:32:44.469Z,36.08
2019-03-31T07:35:18.591Z,35.88
2019-03-31T07:37:47.386Z,37.00
2019-03-31T07:40:21.940Z,39.30
2019-03-31T07:42:52.238Z,35.20
2019-03-31T07:45:21.633Z,38.08
2019-03-31T07:47:50.989Z,37.28
2019-03-31T07:50:20.761Z,37.78
2019-03-31T07:52:50.125Z,36.17
2019-03-31T07:55:20.588Z,36.80
2019-03-31T07:57:49.942Z,37.55
2019-03-31T08:00:23.717Z,37.23
2019-03-31T08:05:32.394Z,36.38
2019-03-31T08:07:52.905Z,37.48
2019-03-31T08:10:22.429Z,36.05
2019-03-31T08:12:51.800Z,37.35
2019-03-31T08:15:21.131Z,34.90
2019-03-31T08:17:50.546Z,35.92
2019-03-31T08:20:20.202Z,34.85
2019-03-31T08:22:50.509Z,33.05
2019-03-31T08:25:19.832Z,30.48
2019-03-31T08:27:49.162Z,30.15
2019-03-31T08:30:19.346Z,29.48
2019-03-31T08:32:49.656Z,26.70
2019-03-31T08:35:19.126Z,25.95
2019-03-31T08:37:48.463Z,25.15
2019-03-31T08:40:18.255Z,24.32
2019-03-31T08:42:47.590Z,23.55
2019-03-31T08:45:17.760Z,23.10
2019-03-31T08:47:47.149Z,25.12
2019-03-31T08:50:17.951Z,22.87
2019-03-31T08:52:47.286Z,24.30
2019-03-31T08:55:16.618Z,23.57
2019-03-31T08:57:45.952Z,22.87
2019-03-31T09:00:18.499Z,22.58
2019-03-31T09:02:47.859Z,22.02
2019-03-31T09:05:17.254Z,21.48
2019-03-31T09:07:46.592Z,21.42
2019-03-31T09:10:16.464Z,22.70
2019-03-31T09:12:48.526Z,21.07
2019-03-31T09:15:16.908Z,20.55
2019-03-31T09:17:46.244Z,21.90
2019-03-31T09:20:16.113Z,20.57
2019-03-31T09:22:45.728Z,20.00
2019-03-31T09:25:15.843Z,20.60
2019-03-31T09:27:45.188Z,18.35
2019-03-31T09:30:15.012Z,19.00
2019-03-31T09:32:44.348Z,19.87
2019-03-31T09:35:13.970Z,18.40
2019-03-31T09:37:43.302Z,18.32
2019-03-31T09:40:14.382Z,20.30
2019-03-31T09:42:43.724Z,18.67
2019-03-31T09:45:14.371Z,18.45
2019-03-31T09:47:43.963Z,19.20
2019-03-31T09:50:17.279Z,18.23
2019-03-31T09:52:45.871Z,16.45
2019-03-31T09:55:15.550Z,16.87
2019-03-31T09:57:44.890Z,19.05
2019-03-31T10:00:29.427Z,19.60
2019-03-31T10:03:01.159Z,19.98
2019-03-31T10:05:29.884Z,20.48
2019-03-31T10:07:59.386Z,19.48
2019-03-31T10:10:32.741Z,18.57
2019-03-31T10:13:02.079Z,18.07
2019-03-31T10:15:31.779Z,18.23
2019-03-31T10:18:01.115Z,17.23
2019-03-31T10:20:31.652Z,17.67
2019-03-31T10:23:01.263Z,17.25
2019-03-31T10:25:30.602Z,15.25
2019-03-31T10:28:00.225Z,15.23
2019-03-31T10:30:34.309Z,17.27
2019-03-31T10:33:04.579Z,17.87
2019-03-31T10:35:34.307Z,16.97
2019-03-31T10:38:04.998Z,17.00
2019-03-31T10:40:34.482Z,15.95
2019-03-31T10:43:04.530Z,16.07
2019-03-31T10:45:34.395Z,13.48
2019-03-31T10:48:04.011Z,14.40
2019-03-31T10:50:33.669Z,14.98
2019-03-31T10:53:03.010Z,14.70
2019-03-31T10:55:32.344Z,17.52
2019-03-31T10:58:02.752Z,19.02
2019-03-31T11:00:37.192Z,17.77
2019-03-31T11:03:08.173Z,17.17
2019-03-31T11:05:38.753Z,16.48
2019-03-31T11:08:08.083Z,16.48
2019-03-31T11:10:37.495Z,16.73
2019-03-31T11:13:07.266Z,15.63
2019-03-31T11:15:36.606Z,15.90
2019-03-31T11:18:05.942Z,16.65
2019-03-31T11:20:35.285Z,17.10
2019-03-31T11:23:09.297Z,17.12
2019-03-31T11:25:38.640Z,15.68
2019-03-31T11:28:08.441Z,15.10
2019-03-31T11:30:38.120Z,14.38
2019-03-31T11:33:07.961Z,14.75
2019-03-31T11:35:37.253Z,16.90
2019-03-31T11:38:06.589Z,16.20
2019-03-31T11:40:35.939Z,14.78
2019-03-31T11:43:05.269Z,14.45
2019-03-31T11:45:34.612Z,16.15
2019-03-31T11:48:04.024Z,16.48
2019-03-31T11:50:33.366Z,13.10
2019-03-31T11:53:02.699Z,12.82
2019-03-31T11:55:32.040Z,14.68
2019-03-31T11:58:01.375Z,14.68
2019-03-31T12:00:32.691Z,15.95
2019-03-31T12:03:02.102Z,15.60
2019-03-31T12:05:31.439Z,15.03
2019-03-31T12:08:00.770Z,14.45
2019-03-31T12:10:30.107Z,13.83
2019-03-31T12:12:59.436Z,11.55
2019-03-31T12:15:28.772Z,9.85
2019-03-31T12:17:58.108Z,10.45
2019-03-31T12:20:27.509Z,9.75
2019-03-31T12:22:56.864Z,8.95
2019-03-31T12:25:26.214Z,7.40
2019-03-31T12:27:55.543Z,6.80
2019-03-31T12:30:28.752Z,8.05
2019-03-31T12:32:58.853Z,8.53
2019-03-31T12:35:28.189Z,7.83
2019-03-31T12:37:57.700Z,7.62
2019-03-31T12:40:34.860Z,8.35
2019-03-31T12:43:04.933Z,7.78
2019-03-31T12:45:34.375Z,6.30
2019-03-31T12:48:03.701Z,8.28
2019-03-31T12:50:33.358Z,7.97
2019-03-31T12:53:02.695Z,7.12
2019-03-31T12:55:32.021Z,7.37
2019-03-31T12:58:01.351Z,6.00
2019-03-31T13:00:31.820Z,5.67
2019-03-31T13:03:01.174Z,5.83
2019-03-31T13:05:30.497Z,5.25
2019-03-31T13:07:59.824Z,5.72
2019-03-31T13:10:29.168Z,5.62
2019-03-31T13:12:58.494Z,5.62
2019-03-31T13:15:28.831Z,5.00
2019-03-31T13:17:58.126Z,5.28
2019-03-31T13:20:27.455Z,5.60
2019-03-31T13:22:56.787Z,5.45
2019-03-31T13:25:26.441Z,5.37
2019-03-31T13:27:55.843Z,6.03
2019-03-31T13:30:25.457Z,6.78
2019-03-31T13:32:54.794Z,5.67
2019-03-31T13:35:24.129Z,6.05
2019-03-31T13:37:53.550Z,6.22
2019-03-31T13:40:23.173Z,6.60
2019-03-31T13:42:52.509Z,5.15
2019-03-31T13:45:21.837Z,5.28
2019-03-31T13:47:51.165Z,6.45
2019-03-31T13:50:20.494Z,4.85
2019-03-31T13:52:49.818Z,4.58
2019-03-31T13:55:19.163Z,4.80
2019-03-31T13:57:49.773Z,5.08
2019-03-31T14:00:25.513Z,5.40
2019-03-31T14:02:53.360Z,5.20
2019-03-31T14:05:22.695Z,5.90
2019-03-31T14:07:52.022Z,5.22
2019-03-31T14:10:21.357Z,5.40
2019-03-31T14:12:50.692Z,5.33
2019-03-31T14:15:20.020Z,5.22
2019-03-31T14:17:49.583Z,5.47
2019-03-31T14:20:18.909Z,5.67
2019-03-31T14:22:48.242Z,5.42
2019-03-31T14:25:17.633Z,5.72
2019-03-31T14:27:48.041Z,6.05
2019-03-31T14:30:17.735Z,5.92
2019-03-31T14:32:47.066Z,6.67
2019-03-31T14:35:16.417Z,6.50
2019-03-31T14:37:46.032Z,7.65
2019-03-31T14:40:15.424Z,7.00
2019-03-31T14:42:44.766Z,5.65
2019-03-31T14:45:31.519Z,5.42
2019-03-31T14:48:01.526Z,5.67
2019-03-31T14:50:33.001Z,2.12
2019-03-31T14:53:02.714Z,3.35
2019-03-31T14:55:32.033Z,5.20
2019-03-31T14:58:01.620Z,6.37
2019-03-31T15:00:31.234Z,6.53
2019-03-31T15:03:00.575Z,7.20
2019-03-31T15:05:29.907Z,7.35
2019-03-31T15:07:59.543Z,8.03
2019-03-31T15:10:28.871Z,8.83
2019-03-31T15:12:58.204Z,8.25
2019-03-31T15:15:27.538Z,7.45
2019-03-31T15:17:56.959Z,7.55
2019-03-31T15:20:26.290Z,7.28
2019-03-31T15:22:55.622Z,7.92
2019-03-31T15:25:24.958Z,7.78
2019-03-31T15:27:54.578Z,7.55
2019-03-31T15:30:23.899Z,7.42
2019-03-31T15:32:53.475Z,7.33
2019-03-31T15:35:23.033Z,6.17
2019-03-31T15:37:52.594Z,6.95
2019-03-31T15:40:21.992Z,6.55
2019-03-31T15:42:51.327Z,6.28
2019-03-31T15:45:20.656Z,8.00
2019-03-31T15:47:49.983Z,7.70
2019-03-31T15:50:19.552Z,7.50
2019-03-31T15:52:48.941Z,5.65
2019-03-31T15:55:18.274Z,4.40
2019-03-31T15:57:48.800Z,4.37
2019-03-31T16:00:18.570Z,4.33
2019-03-31T16:02:47.893Z,4.00
2019-03-31T16:05:17.223Z,4.33
2019-03-31T16:07:47.498Z,4.40
2019-03-31T16:10:16.988Z,3.08
2019-03-31T16:12:46.308Z,2.50
2019-03-31T16:15:16.037Z,3.05
2019-03-31T16:17:45.365Z,3.47
2019-03-31T16:20:14.929Z,3.45
2019-03-31T16:22:44.252Z,4.65
2019-03-31T16:25:24.130Z,5.15
2019-03-31T16:27:53.459Z,4.65
2019-03-31T16:30:23.759Z,4.60
2019-03-31T16:32:53.083Z,4.60
2019-03-31T16:35:22.414Z,3.40
2019-03-31T16:37:51.804Z,3.20
2019-03-31T16:40:21.135Z,3.62
2019-03-31T16:42:50.460Z,3.08
2019-03-31T16:45:19.795Z,2.30
2019-03-31T16:47:49.116Z,2.50
2019-03-31T16:50:18.689Z,3.65
2019-03-31T16:52:48.022Z,4.20
2019-03-31T16:55:17.426Z,2.87
2019-03-31T16:57:46.748Z,3.00
2019-03-31T17:00:16.220Z,2.75
2019-03-31T17:02:45.544Z,2.70
2019-03-31T17:05:21.810Z,2.95
2019-03-31T17:07:46.927Z,3.10
2019-03-31T17:10:16.404Z,3.87
2019-03-31T17:12:45.729Z,3.12
2019-03-31T17:15:15.200Z,3.47
2019-03-31T17:17:44.537Z,3.40
2019-03-31T17:20:14.103Z,2.72
2019-03-31T17:22:43.426Z,3.22
2019-03-31T17:25:12.758Z,3.15
2019-03-31T17:27:42.080Z,2.70
2019-03-31T17:30:11.550Z,3.20
2019-03-31T17:32:40.882Z,3.20
2019-03-31T17:35:10.214Z,3.27
2019-03-31T17:37:39.563Z,3.27
2019-03-31T17:40:09.064Z,2.98
2019-03-31T17:42:38.390Z,3.50
2019-03-31T17:45:08.271Z,2.90
2019-03-31T17:47:37.670Z,3.30
2019-03-31T17:50:07.709Z,3.87
2019-03-31T17:52:38.008Z,2.70
2019-03-31T17:55:07.607Z,2.83
2019-03-31T17:57:37.003Z,3.40
2019-03-31T18:00:09.750Z,2.77
2019-03-31T18:02:39.079Z,3.60
2019-03-31T18:05:09.360Z,3.05
2019-03-31T18:07:38.691Z,3.40
2019-03-31T18:10:20.098Z,3.17
2019-03-31T18:12:39.376Z,3.47
2019-03-31T18:15:09.052Z,3.17
2019-03-31T18:17:38.613Z,3.27
2019-03-31T18:20:08.327Z,3.33
2019-03-31T18:22:37.721Z,3.27
2019-03-31T18:25:08.237Z,3.10
2019-03-31T18:27:37.569Z,3.77
2019-03-31T18:30:08.179Z,2.70
2019-03-31T18:32:37.576Z,3.22
2019-03-31T18:35:07.676Z,4.05
2019-03-31T18:37:37.106Z,3.45
2019-03-31T18:40:08.573Z,4.05
2019-03-31T18:42:37.945Z,3.77
2019-03-31T18:45:07.877Z,3.58
2019-03-31T18:47:37.212Z,2.80
2019-03-31T18:50:08.262Z,3.55
2019-03-31T18:52:37.603Z,3.70
2019-03-31T18:55:11.854Z,3.25
2019-03-31T18:57:43.081Z,3.02
2019-03-31T19:00:26.408Z,3.37
2019-03-31T19:03:15.478Z,4.05
2019-03-31T19:05:47.419Z,2.98
2019-03-31T19:08:34.373Z,3.55
2019-03-31T19:11:05.465Z,2.52
2019-03-31T19:13:55.709Z,2.75
2019-03-31T19:16:28.304Z,3.05
2019-03-31T19:18:59.273Z,3.10
2019-03-31T19:21:36.262Z,3.30
2019-03-31T19:24:07.243Z,3.42
2019-03-31T19:26:48.092Z,2.87
2019-03-31T19:29:25.468Z,2.67
2019-03-31T19:31:59.244Z,2.90
2019-03-31T19:37:03.339Z,2.75
2019-03-31T19:39:53.604Z,3.42
2019-03-31T19:42:41.362Z,3.25
2019-03-31T19:45:15.084Z,2.83
2019-03-31T19:50:22.321Z,2.40
2019-03-31T19:52:59.070Z,3.25
2019-03-31T19:55:35.835Z,2.20
2019-03-31T19:58:12.256Z,2.47
2019-03-31T20:00:52.395Z,1.70
2019-03-31T20:03:32.043Z,1.57
2019-03-31T20:06:05.933Z,2.37
2019-03-31T20:08:48.621Z,2.58
2019-03-31T20:11:19.591Z,2.40
2019-03-31T20:14:02.794Z,2.40
2019-03-31T20:16:52.231Z,2.52
2019-03-31T20:19:25.850Z,2.65
2019-03-31T20:22:05.764Z,2.27
2019-03-31T20:24:45.760Z,2.17
2019-03-31T20:27:16.729Z,2.52
2019-03-31T20:29:50.426Z,2.30
2019-03-31T20:35:08.808Z,2.20
2019-03-31T20:37:42.836Z,2.77
2019-03-31T20:40:19.721Z,2.83
2019-03-31T20:42:50.894Z,2.52
2019-03-31T20:45:21.191Z,2.15
2019-03-31T20:47:51.619Z,2.50
2019-03-31T20:50:20.940Z,2.20
2019-03-31T20:52:50.335Z,2.90
2019-03-31T20:55:20.730Z,3.08
2019-03-31T20:57:50.054Z,2.90
2019-03-31T21:00:19.519Z,2.72
2019-03-31T21:02:49.113Z,3.00
2019-03-31T21:05:18.438Z,2.60
2019-03-31T21:07:47.756Z,2.42
2019-03-31T21:10:17.144Z,2.40
2019-03-31T21:12:47.365Z,2.50
2019-03-31T21:15:16.693Z,3.00
2019-03-31T21:17:46.014Z,2.67
2019-03-31T21:20:15.583Z,3.35
2019-03-31T21:22:44.901Z,3.40
2019-03-31T21:25:14.235Z,3.30
2019-03-31T21:27:43.675Z,3.30
2019-03-31T21:30:13.151Z,4.47
2019-03-31T21:32:42.717Z,3.67
2019-03-31T21:35:12.120Z,5.22
2019-03-31T21:37:41.451Z,6.50
2019-03-31T21:40:10.912Z,4.50
2019-03-31T21:42:40.232Z,5.03
2019-03-31T21:45:09.675Z,3.80
2019-03-31T21:47:39.220Z,4.22
2019-03-31T21:50:08.790Z,3.95
2019-03-31T21:52:38.406Z,3.37
2019-03-31T21:55:08.274Z,3.98
2019-03-31T21:57:37.598Z,3.35
2019-03-31T22:00:09.906Z,3.55
2019-03-31T22:02:40.855Z,3.92
2019-03-31T22:05:10.592Z,3.40
2019-03-31T22:07:39.917Z,3.25
2019-03-31T22:10:09.377Z,3.12
2019-03-31T22:12:38.712Z,3.08
2019-03-31T22:15:08.490Z,2.60
2019-03-31T22:17:37.812Z,2.70
2019-03-31T22:20:07.991Z,2.95
2019-03-31T22:22:37.345Z,2.65
2019-03-31T22:25:07.309Z,2.25
2019-03-31T22:27:36.773Z,2.77
2019-03-31T22:30:07.650Z,2.20
2019-03-31T22:32:36.976Z,1.95
2019-03-31T22:35:07.505Z,2.35
2019-03-31T22:37:36.913Z,1.98
2019-03-31T22:40:06.901Z,2.10
2019-03-31T22:42:36.934Z,1.98
2019-03-31T22:45:06.697Z,1.72
2019-03-31T22:47:36.030Z,2.20
2019-03-31T22:50:06.177Z,2.12
2019-03-31T22:52:35.774Z,2.22
2019-03-31T22:55:06.836Z,2.12
2019-03-31T22:57:36.160Z,2.10
2019-03-31T23:00:08.160Z,2.47
2019-03-31T23:02:39.105Z,2.12
2019-03-31T23:05:10.339Z,2.40
2019-03-31T23:07:39.677Z,2.42
2019-03-31T23:10:09.500Z,2.35
2019-03-31T23:12:38.829Z,2.20
2019-03-31T23:15:08.488Z,2.30
2019-03-31T23:17:37.828Z,2.35
2019-03-31T23:20:07.375Z,2.30
2019-03-31T23:22:36.734Z,2.75
2019-03-31T23:25:06.693Z,2.45
2019-03-31T23:27:36.039Z,2.50
2019-03-31T23:30:08.675Z,2.02
2019-03-31T23:32:37.998Z,2.40
2019-03-31T23:35:07.967Z,2.37
2019-03-31T23:37:37.304Z,2.12
2019-03-31T23:40:06.757Z,2.12
2019-03-31T23:42:36.082Z,2.20
2019-03-31T23:45:07.015Z,2.45
2019-03-31T23:47:36.345Z,2.58
2019-03-31T23:50:06.712Z,2.87
2019-03-31T23:52:36.082Z,2.80
2019-03-31T23:55:06.186Z,2.60
2019-03-31T23:57:42.407Z,2.62
